sensor_id;sensor_type;location;lat;lon;timestamp;temperature;humidity
46732;DHT22;32477;51.474;5.696;2023-07-31T00:00:27;16.60;99.90
46732;DHT22;32477;51.474;5.696;2023-07-31T00:02:52;16.60;99.90
46732;DHT22;32477;51.474;5.696;2023-07-31T00:05:18;16.60;99.90
46732;DHT22;32477;51.474;5.696;2023-07-31T00:07:44;16.50;99.90
46732;DHT22;32477;51.474;5.696;2023-07-31T00:10:09;16.50;99.90
46732;DHT22;32477;51.474;5.696;2023-07-31T00:12:35;16.50;99.90
46732;DHT22;32477;51.474;5.696;2023-07-31T00:15:02;16.50;99.90
46732;DHT22;32477;51.474;5.696;2023-07-31T00:17:28;16.50;99.90
46732;DHT22;32477;51.474;5.696;2023-07-31T00:19:53;16.50;99.90
46732;DHT22;32477;51.474;5.696;2023-07-31T00:22:19;16.50;99.90
46732;DHT22;32477;51.474;5.696;2023-07-31T00:24:44;16.50;99.90
46732;DHT22;32477;51.474;5.696;2023-07-31T00:27:10;16.50;99.90
46732;DHT22;32477;51.474;5.696;2023-07-31T00:29:36;16.50;99.90
46732;DHT22;32477;51.474;5.696;2023-07-31T00:32:01;16.50;99.90
46732;DHT22;32477;51.474;5.696;2023-07-31T00:34:27;16.50;99.90
46732;DHT22;32477;51.474;5.696;2023-07-31T00:36:53;16.50;99.90
46732;DHT22;32477;51.474;5.696;2023-07-31T00:39:18;16.50;99.90
46732;DHT22;32477;51.474;5.696;2023-07-31T00:41:44;16.50;99.90
46732;DHT22;32477;51.474;5.696;2023-07-31T00:44:10;16.50;99.90
46732;DHT22;32477;51.474;5.696;2023-07-31T00:46:35;16.50;99.90
46732;DHT22;32477;51.474;5.696;2023-07-31T00:49:01;16.50;99.90
46732;DHT22;32477;51.474;5.696;2023-07-31T00:51:27;16.50;99.90
46732;DHT22;32477;51.474;5.696;2023-07-31T00:53:53;16.50;99.90
46732;DHT22;32477;51.474;5.696;2023-07-31T00:56:21;16.50;99.90
46732;DHT22;32477;51.474;5.696;2023-07-31T00:58:47;16.50;99.90
46732;DHT22;32477;51.474;5.696;2023-07-31T01:01:13;16.50;99.90
46732;DHT22;32477;51.474;5.696;2023-07-31T01:03:39;16.50;99.90
46732;DHT22;32477;51.474;5.696;2023-07-31T01:08:45;16.50;99.90
46732;DHT22;32477;51.474;5.696;2023-07-31T01:11:25;16.50;99.90
46732;DHT22;32477;51.474;5.696;2023-07-31T01:13:53;16.50;99.90
46732;DHT22;32477;51.474;5.696;2023-07-31T01:16:19;16.50;99.90
46732;DHT22;32477;51.474;5.696;2023-07-31T01:18:45;16.50;99.90
46732;DHT22;32477;51.474;5.696;2023-07-31T01:24:14;16.40;99.90
46732;DHT22;32477;51.474;5.696;2023-07-31T01:26:49;16.40;99.90
46732;DHT22;32477;51.474;5.696;2023-07-31T01:32:18;16.40;99.90
46732;DHT22;32477;51.474;5.696;2023-07-31T01:34:44;16.40;99.90
46732;DHT22;32477;51.474;5.696;2023-07-31T01:37:10;16.50;99.90
46732;DHT22;32477;51.474;5.696;2023-07-31T01:39:39;16.50;99.90
46732;DHT22;32477;51.474;5.696;2023-07-31T01:42:05;16.50;99.90
46732;DHT22;32477;51.474;5.696;2023-07-31T01:44:30;16.40;99.90
46732;DHT22;32477;51.474;5.696;2023-07-31T01:46:56;16.40;99.90
46732;DHT22;32477;51.474;5.696;2023-07-31T01:49:21;16.40;99.90
46732;DHT22;32477;51.474;5.696;2023-07-31T01:51:47;16.40;99.90
46732;DHT22;32477;51.474;5.696;2023-07-31T01:54:13;16.40;99.90
46732;DHT22;32477;51.474;5.696;2023-07-31T01:56:38;16.40;99.90
46732;DHT22;32477;51.474;5.696;2023-07-31T01:59:04;16.40;99.90
46732;DHT22;32477;51.474;5.696;2023-07-31T02:01:29;16.40;99.90
46732;DHT22;32477;51.474;5.696;2023-07-31T02:03:55;16.40;99.90
46732;DHT22;32477;51.474;5.696;2023-07-31T02:06:20;16.30;99.90
46732;DHT22;32477;51.474;5.696;2023-07-31T02:08:47;16.30;99.90
46732;DHT22;32477;51.474;5.696;2023-07-31T02:11:13;16.20;99.90
46732;DHT22;32477;51.474;5.696;2023-07-31T02:13:39;16.20;99.90
46732;DHT22;32477;51.474;5.696;2023-07-31T02:16:04;16.20;99.90
46732;DHT22;32477;51.474;5.696;2023-07-31T02:18:30;16.20;99.90
46732;DHT22;32477;51.474;5.696;2023-07-31T02:20:55;16.20;99.90
46732;DHT22;32477;51.474;5.696;2023-07-31T02:23:21;16.20;99.90
46732;DHT22;32477;51.474;5.696;2023-07-31T02:25:47;16.20;99.90
46732;DHT22;32477;51.474;5.696;2023-07-31T02:28:13;16.20;99.90
46732;DHT22;32477;51.474;5.696;2023-07-31T02:30:38;16.20;99.90
46732;DHT22;32477;51.474;5.696;2023-07-31T02:33:05;16.20;99.90
46732;DHT22;32477;51.474;5.696;2023-07-31T02:35:30;16.20;99.90
46732;DHT22;32477;51.474;5.696;2023-07-31T02:37:56;16.20;99.90
46732;DHT22;32477;51.474;5.696;2023-07-31T02:40:22;16.20;99.90
46732;DHT22;32477;51.474;5.696;2023-07-31T02:42:47;16.20;99.90
46732;DHT22;32477;51.474;5.696;2023-07-31T02:45:13;16.20;99.90
46732;DHT22;32477;51.474;5.696;2023-07-31T02:47:38;16.20;99.90
46732;DHT22;32477;51.474;5.696;2023-07-31T02:50:04;16.20;99.90
46732;DHT22;32477;51.474;5.696;2023-07-31T02:52:30;16.20;99.90
46732;DHT22;32477;51.474;5.696;2023-07-31T02:54:56;16.20;99.90
46732;DHT22;32477;51.474;5.696;2023-07-31T02:57:22;16.20;99.90
46732;DHT22;32477;51.474;5.696;2023-07-31T02:59:47;16.20;99.90
46732;DHT22;32477;51.474;5.696;2023-07-31T03:02:13;16.20;99.90
46732;DHT22;32477;51.474;5.696;2023-07-31T03:04:39;16.20;99.90
46732;DHT22;32477;51.474;5.696;2023-07-31T03:07:05;16.20;99.90
46732;DHT22;32477;51.474;5.696;2023-07-31T03:09:31;16.30;99.90
46732;DHT22;32477;51.474;5.696;2023-07-31T03:11:56;16.30;99.90
46732;DHT22;32477;51.474;5.696;2023-07-31T03:14:22;16.30;99.90
46732;DHT22;32477;51.474;5.696;2023-07-31T03:16:48;16.30;99.90
46732;DHT22;32477;51.474;5.696;2023-07-31T03:19:14;16.30;99.90
46732;DHT22;32477;51.474;5.696;2023-07-31T03:21:39;16.20;99.90
46732;DHT22;32477;51.474;5.696;2023-07-31T03:24:05;16.30;99.90
46732;DHT22;32477;51.474;5.696;2023-07-31T03:26:34;16.30;99.90
46732;DHT22;32477;51.474;5.696;2023-07-31T03:29:00;16.30;99.90
46732;DHT22;32477;51.474;5.696;2023-07-31T03:31:26;16.30;99.90
46732;DHT22;32477;51.474;5.696;2023-07-31T03:33:51;16.30;99.90
46732;DHT22;32477;51.474;5.696;2023-07-31T03:36:17;16.30;99.90
46732;DHT22;32477;51.474;5.696;2023-07-31T03:38:43;16.30;99.90
46732;DHT22;32477;51.474;5.696;2023-07-31T03:41:08;16.40;99.90
46732;DHT22;32477;51.474;5.696;2023-07-31T03:43:35;16.40;99.90
46732;DHT22;32477;51.474;5.696;2023-07-31T03:46:01;16.40;99.90
46732;DHT22;32477;51.474;5.696;2023-07-31T03:48:28;16.50;99.90
46732;DHT22;32477;51.474;5.696;2023-07-31T03:50:53;16.40;99.90
46732;DHT22;32477;51.474;5.696;2023-07-31T03:53:19;16.40;99.90
46732;DHT22;32477;51.474;5.696;2023-07-31T03:55:45;16.40;99.90
46732;DHT22;32477;51.474;5.696;2023-07-31T03:58:10;16.50;99.90
46732;DHT22;32477;51.474;5.696;2023-07-31T04:00:36;16.50;99.90
46732;DHT22;32477;51.474;5.696;2023-07-31T04:03:02;16.50;99.90
46732;DHT22;32477;51.474;5.696;2023-07-31T04:05:29;16.50;99.90
46732;DHT22;32477;51.474;5.696;2023-07-31T04:07:55;16.50;99.90
46732;DHT22;32477;51.474;5.696;2023-07-31T04:10:20;16.50;99.90
46732;DHT22;32477;51.474;5.696;2023-07-31T04:12:46;16.60;99.90
46732;DHT22;32477;51.474;5.696;2023-07-31T04:15:11;16.60;99.90
46732;DHT22;32477;51.474;5.696;2023-07-31T04:17:37;16.60;99.90
46732;DHT22;32477;51.474;5.696;2023-07-31T04:20:03;16.60;99.90
46732;DHT22;32477;51.474;5.696;2023-07-31T04:22:29;16.70;99.90
46732;DHT22;32477;51.474;5.696;2023-07-31T04:24:54;16.70;99.90
46732;DHT22;32477;51.474;5.696;2023-07-31T04:27:20;16.70;99.90
46732;DHT22;32477;51.474;5.696;2023-07-31T04:29:45;16.80;99.90
46732;DHT22;32477;51.474;5.696;2023-07-31T04:32:12;16.80;99.90
46732;DHT22;32477;51.474;5.696;2023-07-31T04:34:38;16.90;99.90
46732;DHT22;32477;51.474;5.696;2023-07-31T04:37:04;16.90;99.90
46732;DHT22;32477;51.474;5.696;2023-07-31T04:39:29;16.90;99.90
46732;DHT22;32477;51.474;5.696;2023-07-31T04:41:55;16.90;99.90
46732;DHT22;32477;51.474;5.696;2023-07-31T04:44:20;16.90;99.90
46732;DHT22;32477;51.474;5.696;2023-07-31T04:46:46;16.90;99.90
46732;DHT22;32477;51.474;5.696;2023-07-31T04:49:11;16.90;99.90
46732;DHT22;32477;51.474;5.696;2023-07-31T04:51:37;16.90;99.90
46732;DHT22;32477;51.474;5.696;2023-07-31T04:54:03;16.90;99.90
46732;DHT22;32477;51.474;5.696;2023-07-31T04:56:28;17.00;99.90
46732;DHT22;32477;51.474;5.696;2023-07-31T04:58:54;17.00;99.90
46732;DHT22;32477;51.474;5.696;2023-07-31T05:01:20;17.00;99.90
46732;DHT22;32477;51.474;5.696;2023-07-31T05:03:46;17.10;99.90
46732;DHT22;32477;51.474;5.696;2023-07-31T05:06:11;17.10;99.90
46732;DHT22;32477;51.474;5.696;2023-07-31T05:08:38;17.10;99.90
46732;DHT22;32477;51.474;5.696;2023-07-31T05:11:04;17.10;99.90
46732;DHT22;32477;51.474;5.696;2023-07-31T05:13:30;17.10;99.90
46732;DHT22;32477;51.474;5.696;2023-07-31T05:15:55;17.10;99.90
46732;DHT22;32477;51.474;5.696;2023-07-31T05:18:21;17.10;99.90
46732;DHT22;32477;51.474;5.696;2023-07-31T05:20:47;17.10;99.90
46732;DHT22;32477;51.474;5.696;2023-07-31T05:23:12;17.00;99.90
46732;DHT22;32477;51.474;5.696;2023-07-31T05:25:38;16.90;99.90
46732;DHT22;32477;51.474;5.696;2023-07-31T05:28:03;16.80;99.90
46732;DHT22;32477;51.474;5.696;2023-07-31T05:30:32;16.80;99.90
46732;DHT22;32477;51.474;5.696;2023-07-31T05:32:58;16.70;99.90
46732;DHT22;32477;51.474;5.696;2023-07-31T05:35:23;16.70;99.90
46732;DHT22;32477;51.474;5.696;2023-07-31T05:37:49;16.60;99.90
46732;DHT22;32477;51.474;5.696;2023-07-31T05:40:15;16.60;99.90
46732;DHT22;32477;51.474;5.696;2023-07-31T05:42:40;16.60;99.90
46732;DHT22;32477;51.474;5.696;2023-07-31T05:45:07;16.50;99.90
46732;DHT22;32477;51.474;5.696;2023-07-31T05:47:32;16.60;99.90
46732;DHT22;32477;51.474;5.696;2023-07-31T05:49:58;16.60;99.90
46732;DHT22;32477;51.474;5.696;2023-07-31T05:52:24;16.60;99.90
46732;DHT22;32477;51.474;5.696;2023-07-31T05:54:50;16.60;99.90
46732;DHT22;32477;51.474;5.696;2023-07-31T05:57:16;16.60;99.90
46732;DHT22;32477;51.474;5.696;2023-07-31T05:59:42;16.60;99.90
46732;DHT22;32477;51.474;5.696;2023-07-31T06:02:08;16.60;99.90
46732;DHT22;32477;51.474;5.696;2023-07-31T06:04:33;16.60;99.90
46732;DHT22;32477;51.474;5.696;2023-07-31T06:06:59;16.60;99.90
46732;DHT22;32477;51.474;5.696;2023-07-31T06:09:25;16.60;99.90
46732;DHT22;32477;51.474;5.696;2023-07-31T06:11:51;16.60;99.90
46732;DHT22;32477;51.474;5.696;2023-07-31T06:14:16;16.60;99.90
46732;DHT22;32477;51.474;5.696;2023-07-31T06:16:42;16.60;99.90
46732;DHT22;32477;51.474;5.696;2023-07-31T06:19:09;16.60;99.90
46732;DHT22;32477;51.474;5.696;2023-07-31T06:21:35;16.60;99.90
46732;DHT22;32477;51.474;5.696;2023-07-31T06:24:03;16.60;99.90
46732;DHT22;32477;51.474;5.696;2023-07-31T06:26:28;16.60;99.90
46732;DHT22;32477;51.474;5.696;2023-07-31T06:28:54;16.60;99.90
46732;DHT22;32477;51.474;5.696;2023-07-31T06:31:20;16.50;99.90
46732;DHT22;32477;51.474;5.696;2023-07-31T06:33:49;16.50;99.90
46732;DHT22;32477;51.474;5.696;2023-07-31T06:36:14;16.50;99.90
46732;DHT22;32477;51.474;5.696;2023-07-31T06:38:40;16.50;99.90
46732;DHT22;32477;51.474;5.696;2023-07-31T06:41:05;16.50;99.90
46732;DHT22;32477;51.474;5.696;2023-07-31T06:43:31;16.60;99.90
46732;DHT22;32477;51.474;5.696;2023-07-31T06:45:56;16.60;99.90
46732;DHT22;32477;51.474;5.696;2023-07-31T06:48:22;16.60;99.90
46732;DHT22;32477;51.474;5.696;2023-07-31T06:50:48;16.70;99.90
46732;DHT22;32477;51.474;5.696;2023-07-31T06:53:13;16.70;99.90
46732;DHT22;32477;51.474;5.696;2023-07-31T06:55:39;16.70;99.90
46732;DHT22;32477;51.474;5.696;2023-07-31T06:58:04;16.70;99.90
46732;DHT22;32477;51.474;5.696;2023-07-31T07:00:30;16.70;99.90
46732;DHT22;32477;51.474;5.696;2023-07-31T07:02:56;16.70;99.90
46732;DHT22;32477;51.474;5.696;2023-07-31T07:05:21;16.80;99.90
46732;DHT22;32477;51.474;5.696;2023-07-31T07:07:49;16.80;99.90
46732;DHT22;32477;51.474;5.696;2023-07-31T07:10:16;16.80;99.90
46732;DHT22;32477;51.474;5.696;2023-07-31T07:12:42;16.80;99.90
46732;DHT22;32477;51.474;5.696;2023-07-31T07:15:08;16.70;99.90
46732;DHT22;32477;51.474;5.696;2023-07-31T07:17:34;16.70;99.90
46732;DHT22;32477;51.474;5.696;2023-07-31T07:20:00;16.80;99.90
46732;DHT22;32477;51.474;5.696;2023-07-31T07:22:26;16.80;99.90
46732;DHT22;32477;51.474;5.696;2023-07-31T07:24:53;16.90;99.90
46732;DHT22;32477;51.474;5.696;2023-07-31T07:27:18;16.90;99.90
46732;DHT22;32477;51.474;5.696;2023-07-31T07:29:45;17.00;99.90
46732;DHT22;32477;51.474;5.696;2023-07-31T07:32:10;17.00;99.90
46732;DHT22;32477;51.474;5.696;2023-07-31T07:34:37;17.00;99.90
46732;DHT22;32477;51.474;5.696;2023-07-31T07:37:03;16.90;99.90
46732;DHT22;32477;51.474;5.696;2023-07-31T07:39:28;16.90;99.90
46732;DHT22;32477;51.474;5.696;2023-07-31T07:41:54;16.90;99.90
46732;DHT22;32477;51.474;5.696;2023-07-31T07:44:19;16.90;99.90
46732;DHT22;32477;51.474;5.696;2023-07-31T07:46:45;17.00;99.90
46732;DHT22;32477;51.474;5.696;2023-07-31T07:49:11;17.00;99.90
46732;DHT22;32477;51.474;5.696;2023-07-31T07:51:36;17.00;99.90
46732;DHT22;32477;51.474;5.696;2023-07-31T07:54:02;16.90;99.90
46732;DHT22;32477;51.474;5.696;2023-07-31T07:56:27;16.90;99.90
46732;DHT22;32477;51.474;5.696;2023-07-31T07:58:54;16.90;99.90
46732;DHT22;32477;51.474;5.696;2023-07-31T08:01:19;16.90;99.90
46732;DHT22;32477;51.474;5.696;2023-07-31T08:03:46;16.90;99.90
46732;DHT22;32477;51.474;5.696;2023-07-31T08:06:11;16.90;99.90
46732;DHT22;32477;51.474;5.696;2023-07-31T08:08:37;17.00;99.90
46732;DHT22;32477;51.474;5.696;2023-07-31T08:11:03;16.90;99.90
46732;DHT22;32477;51.474;5.696;2023-07-31T08:13:29;16.90;99.90
46732;DHT22;32477;51.474;5.696;2023-07-31T08:15:55;16.90;99.90
46732;DHT22;32477;51.474;5.696;2023-07-31T08:18:21;16.90;99.90
46732;DHT22;32477;51.474;5.696;2023-07-31T08:20:46;17.00;99.90
46732;DHT22;32477;51.474;5.696;2023-07-31T08:23:12;17.00;99.90
46732;DHT22;32477;51.474;5.696;2023-07-31T08:25:38;17.00;99.90
46732;DHT22;32477;51.474;5.696;2023-07-31T08:28:05;17.00;99.90
46732;DHT22;32477;51.474;5.696;2023-07-31T08:30:31;17.10;99.90
46732;DHT22;32477;51.474;5.696;2023-07-31T08:32:57;17.20;99.90
46732;DHT22;32477;51.474;5.696;2023-07-31T08:35:24;17.10;99.90
46732;DHT22;32477;51.474;5.696;2023-07-31T08:37:49;17.10;99.90
46732;DHT22;32477;51.474;5.696;2023-07-31T08:40:15;17.10;99.90
46732;DHT22;32477;51.474;5.696;2023-07-31T08:42:49;17.10;99.90
46732;DHT22;32477;51.474;5.696;2023-07-31T08:45:18;17.20;99.90
46732;DHT22;32477;51.474;5.696;2023-07-31T08:47:49;17.20;99.90
46732;DHT22;32477;51.474;5.696;2023-07-31T08:50:18;17.20;99.90
46732;DHT22;32477;51.474;5.696;2023-07-31T08:52:46;17.10;99.90
46732;DHT22;32477;51.474;5.696;2023-07-31T08:55:12;17.10;99.90
46732;DHT22;32477;51.474;5.696;2023-07-31T08:57:39;17.20;99.90
46732;DHT22;32477;51.474;5.696;2023-07-31T09:00:06;17.20;99.90
46732;DHT22;32477;51.474;5.696;2023-07-31T09:05:07;17.10;99.90
46732;DHT22;32477;51.474;5.696;2023-07-31T09:07:34;17.10;99.90
46732;DHT22;32477;51.474;5.696;2023-07-31T09:10:01;17.10;99.90
46732;DHT22;32477;51.474;5.696;2023-07-31T09:12:27;17.20;99.90
46732;DHT22;32477;51.474;5.696;2023-07-31T09:14:53;17.30;99.90
46732;DHT22;32477;51.474;5.696;2023-07-31T09:17:33;17.30;99.90
46732;DHT22;32477;51.474;5.696;2023-07-31T09:20:34;17.40;99.90
46732;DHT22;32477;51.474;5.696;2023-07-31T09:25:33;17.70;99.90
46732;DHT22;32477;51.474;5.696;2023-07-31T09:28:03;17.70;99.90
46732;DHT22;32477;51.474;5.696;2023-07-31T09:30:29;17.80;99.90
46732;DHT22;32477;51.474;5.696;2023-07-31T09:33:03;17.80;99.90
46732;DHT22;32477;51.474;5.696;2023-07-31T09:35:31;17.90;99.90
46732;DHT22;32477;51.474;5.696;2023-07-31T09:38:11;17.90;99.90
46732;DHT22;32477;51.474;5.696;2023-07-31T09:40:45;18.00;99.90
46732;DHT22;32477;51.474;5.696;2023-07-31T09:43:13;18.20;99.90
46732;DHT22;32477;51.474;5.696;2023-07-31T09:45:43;18.30;99.90
46732;DHT22;32477;51.474;5.696;2023-07-31T09:48:18;18.30;99.90
46732;DHT22;32477;51.474;5.696;2023-07-31T09:50:46;18.50;99.90
46732;DHT22;32477;51.474;5.696;2023-07-31T09:53:12;18.60;99.90
46732;DHT22;32477;51.474;5.696;2023-07-31T09:55:39;18.60;99.90
46732;DHT22;32477;51.474;5.696;2023-07-31T09:58:09;18.50;99.90
46732;DHT22;32477;51.474;5.696;2023-07-31T10:00:36;18.50;99.90
46732;DHT22;32477;51.474;5.696;2023-07-31T10:03:09;18.50;99.90
46732;DHT22;32477;51.474;5.696;2023-07-31T10:05:40;18.60;99.90
46732;DHT22;32477;51.474;5.696;2023-07-31T10:08:09;18.50;99.90
46732;DHT22;32477;51.474;5.696;2023-07-31T10:10:41;18.70;99.90
46732;DHT22;32477;51.474;5.696;2023-07-31T10:13:08;18.70;99.90
46732;DHT22;32477;51.474;5.696;2023-07-31T10:15:34;18.60;99.90
46732;DHT22;32477;51.474;5.696;2023-07-31T10:18:01;18.40;99.90
46732;DHT22;32477;51.474;5.696;2023-07-31T10:20:28;18.40;99.90
46732;DHT22;32477;51.474;5.696;2023-07-31T10:22:57;18.30;99.90
46732;DHT22;32477;51.474;5.696;2023-07-31T10:25:26;18.30;99.90
46732;DHT22;32477;51.474;5.696;2023-07-31T10:27:52;18.30;99.90
46732;DHT22;32477;51.474;5.696;2023-07-31T10:30:20;18.50;99.90
46732;DHT22;32477;51.474;5.696;2023-07-31T10:32:48;18.60;99.90
46732;DHT22;32477;51.474;5.696;2023-07-31T10:35:16;18.60;99.90
46732;DHT22;32477;51.474;5.696;2023-07-31T10:37:43;18.50;99.90
46732;DHT22;32477;51.474;5.696;2023-07-31T10:40:17;18.40;99.90
46732;DHT22;32477;51.474;5.696;2023-07-31T10:42:49;18.50;99.90
46732;DHT22;32477;51.474;5.696;2023-07-31T10:48:21;18.80;99.90
46732;DHT22;32477;51.474;5.696;2023-07-31T10:50:50;18.80;99.90
46732;DHT22;32477;51.474;5.696;2023-07-31T10:53:31;18.80;99.90
46732;DHT22;32477;51.474;5.696;2023-07-31T10:56:00;18.90;99.90
46732;DHT22;32477;51.474;5.696;2023-07-31T10:58:26;18.90;99.90
46732;DHT22;32477;51.474;5.696;2023-07-31T11:00:56;19.00;99.90
46732;DHT22;32477;51.474;5.696;2023-07-31T11:03:26;19.20;99.90
46732;DHT22;32477;51.474;5.696;2023-07-31T11:08:24;19.80;99.90
46732;DHT22;32477;51.474;5.696;2023-07-31T11:13:41;20.10;99.90
46732;DHT22;32477;51.474;5.696;2023-07-31T11:16:07;20.10;99.90
46732;DHT22;32477;51.474;5.696;2023-07-31T11:18:33;20.20;99.90
46732;DHT22;32477;51.474;5.696;2023-07-31T11:20:58;20.40;99.90
46732;DHT22;32477;51.474;5.696;2023-07-31T11:23:24;20.60;99.90
46732;DHT22;32477;51.474;5.696;2023-07-31T11:25:50;20.80;99.90
46732;DHT22;32477;51.474;5.696;2023-07-31T11:28:17;20.80;99.90
46732;DHT22;32477;51.474;5.696;2023-07-31T11:30:45;20.50;99.90
46732;DHT22;32477;51.474;5.696;2023-07-31T11:33:12;20.30;99.90
46732;DHT22;32477;51.474;5.696;2023-07-31T11:35:46;20.00;99.90
46732;DHT22;32477;51.474;5.696;2023-07-31T11:38:25;20.10;99.90
46732;DHT22;32477;51.474;5.696;2023-07-31T11:40:52;20.20;99.90
46732;DHT22;32477;51.474;5.696;2023-07-31T11:43:18;20.30;99.90
46732;DHT22;32477;51.474;5.696;2023-07-31T11:45:49;20.60;99.90
46732;DHT22;32477;51.474;5.696;2023-07-31T11:48:19;20.80;99.90
46732;DHT22;32477;51.474;5.696;2023-07-31T11:50:45;20.90;99.90
46732;DHT22;32477;51.474;5.696;2023-07-31T11:53:12;20.90;99.90
46732;DHT22;32477;51.474;5.696;2023-07-31T11:55:38;21.00;99.90
46732;DHT22;32477;51.474;5.696;2023-07-31T11:58:05;20.80;99.90
46732;DHT22;32477;51.474;5.696;2023-07-31T12:00:31;20.50;99.90
46732;DHT22;32477;51.474;5.696;2023-07-31T12:02:56;20.20;99.90
46732;DHT22;32477;51.474;5.696;2023-07-31T12:05:22;20.00;99.90
46732;DHT22;32477;51.474;5.696;2023-07-31T12:07:53;19.80;99.90
46732;DHT22;32477;51.474;5.696;2023-07-31T12:10:31;19.60;99.90
46732;DHT22;32477;51.474;5.696;2023-07-31T12:13:04;19.60;99.90
46732;DHT22;32477;51.474;5.696;2023-07-31T12:15:37;19.50;99.90
46732;DHT22;32477;51.474;5.696;2023-07-31T12:18:14;19.50;99.90
46732;DHT22;32477;51.474;5.696;2023-07-31T12:20:48;19.30;99.90
46732;DHT22;32477;51.474;5.696;2023-07-31T12:23:18;19.10;99.90
46732;DHT22;32477;51.474;5.696;2023-07-31T12:25:45;18.90;99.90
46732;DHT22;32477;51.474;5.696;2023-07-31T12:28:10;18.90;99.90
46732;DHT22;32477;51.474;5.696;2023-07-31T12:30:40;18.90;99.90
46732;DHT22;32477;51.474;5.696;2023-07-31T12:33:12;19.00;99.90
46732;DHT22;32477;51.474;5.696;2023-07-31T12:35:40;19.20;99.90
46732;DHT22;32477;51.474;5.696;2023-07-31T12:38:05;19.20;99.90
46732;DHT22;32477;51.474;5.696;2023-07-31T12:40:31;19.30;99.90
46732;DHT22;32477;51.474;5.696;2023-07-31T12:42:57;19.40;99.90
46732;DHT22;32477;51.474;5.696;2023-07-31T12:45:23;19.40;99.90
46732;DHT22;32477;51.474;5.696;2023-07-31T12:47:49;19.30;99.90
46732;DHT22;32477;51.474;5.696;2023-07-31T12:50:15;19.40;99.90
46732;DHT22;32477;51.474;5.696;2023-07-31T12:52:41;19.40;99.90
46732;DHT22;32477;51.474;5.696;2023-07-31T12:55:07;19.50;99.90
46732;DHT22;32477;51.474;5.696;2023-07-31T12:57:32;19.40;99.90
46732;DHT22;32477;51.474;5.696;2023-07-31T12:59:58;19.30;99.90
46732;DHT22;32477;51.474;5.696;2023-07-31T13:02:24;19.30;99.90
46732;DHT22;32477;51.474;5.696;2023-07-31T13:04:50;19.50;99.90
46732;DHT22;32477;51.474;5.696;2023-07-31T13:07:16;19.60;99.90
46732;DHT22;32477;51.474;5.696;2023-07-31T13:09:42;19.70;99.90
46732;DHT22;32477;51.474;5.696;2023-07-31T13:12:08;19.80;99.90
46732;DHT22;32477;51.474;5.696;2023-07-31T13:14:34;19.70;99.90
46732;DHT22;32477;51.474;5.696;2023-07-31T13:16:59;19.70;99.90
46732;DHT22;32477;51.474;5.696;2023-07-31T13:19:25;19.70;99.90
46732;DHT22;32477;51.474;5.696;2023-07-31T13:21:50;19.80;99.90
46732;DHT22;32477;51.474;5.696;2023-07-31T13:24:16;19.90;99.90
46732;DHT22;32477;51.474;5.696;2023-07-31T13:26:44;20.00;99.90
46732;DHT22;32477;51.474;5.696;2023-07-31T13:29:10;20.00;99.90
46732;DHT22;32477;51.474;5.696;2023-07-31T13:31:36;20.10;99.90
46732;DHT22;32477;51.474;5.696;2023-07-31T13:34:01;20.20;99.90
46732;DHT22;32477;51.474;5.696;2023-07-31T13:36:28;20.20;99.90
46732;DHT22;32477;51.474;5.696;2023-07-31T13:38:53;20.30;99.90
46732;DHT22;32477;51.474;5.696;2023-07-31T13:41:19;20.20;99.90
46732;DHT22;32477;51.474;5.696;2023-07-31T13:43:45;20.30;99.90
46732;DHT22;32477;51.474;5.696;2023-07-31T13:46:10;20.30;99.90
46732;DHT22;32477;51.474;5.696;2023-07-31T13:48:36;20.40;99.90
46732;DHT22;32477;51.474;5.696;2023-07-31T13:51:02;20.40;99.90
46732;DHT22;32477;51.474;5.696;2023-07-31T13:53:28;20.40;99.90
46732;DHT22;32477;51.474;5.696;2023-07-31T13:55:53;20.20;99.90
46732;DHT22;32477;51.474;5.696;2023-07-31T13:58:20;20.00;99.90
46732;DHT22;32477;51.474;5.696;2023-07-31T14:00:45;19.90;99.90
46732;DHT22;32477;51.474;5.696;2023-07-31T14:03:11;19.80;99.90
46732;DHT22;32477;51.474;5.696;2023-07-31T14:05:37;19.70;99.90
46732;DHT22;32477;51.474;5.696;2023-07-31T14:08:03;19.50;99.90
46732;DHT22;32477;51.474;5.696;2023-07-31T14:10:28;19.20;99.90
46732;DHT22;32477;51.474;5.696;2023-07-31T14:12:54;18.90;99.90
46732;DHT22;32477;51.474;5.696;2023-07-31T14:15:20;18.70;99.90
46732;DHT22;32477;51.474;5.696;2023-07-31T14:17:45;18.60;99.90
46732;DHT22;32477;51.474;5.696;2023-07-31T14:20:11;18.50;99.90
46732;DHT22;32477;51.474;5.696;2023-07-31T14:22:37;18.50;99.90
46732;DHT22;32477;51.474;5.696;2023-07-31T14:25:04;18.40;99.90
46732;DHT22;32477;51.474;5.696;2023-07-31T14:27:30;18.30;99.90
46732;DHT22;32477;51.474;5.696;2023-07-31T14:29:55;18.30;99.90
46732;DHT22;32477;51.474;5.696;2023-07-31T14:32:24;18.30;99.90
46732;DHT22;32477;51.474;5.696;2023-07-31T14:34:51;18.30;99.90
46732;DHT22;32477;51.474;5.696;2023-07-31T14:37:16;18.40;99.90
46732;DHT22;32477;51.474;5.696;2023-07-31T14:39:42;18.50;99.90
46732;DHT22;32477;51.474;5.696;2023-07-31T14:42:08;18.70;99.90
46732;DHT22;32477;51.474;5.696;2023-07-31T14:44:34;18.80;99.90
46732;DHT22;32477;51.474;5.696;2023-07-31T14:47:00;18.90;99.90
46732;DHT22;32477;51.474;5.696;2023-07-31T14:49:25;18.90;99.90
46732;DHT22;32477;51.474;5.696;2023-07-31T14:51:53;18.90;99.90
46732;DHT22;32477;51.474;5.696;2023-07-31T14:54:19;18.80;99.90
46732;DHT22;32477;51.474;5.696;2023-07-31T14:56:44;18.70;99.90
46732;DHT22;32477;51.474;5.696;2023-07-31T14:59:10;18.70;99.90
46732;DHT22;32477;51.474;5.696;2023-07-31T15:01:37;18.60;99.90
46732;DHT22;32477;51.474;5.696;2023-07-31T15:04:02;18.50;99.90
46732;DHT22;32477;51.474;5.696;2023-07-31T15:06:28;18.40;99.90
46732;DHT22;32477;51.474;5.696;2023-07-31T15:08:54;18.40;99.90
46732;DHT22;32477;51.474;5.696;2023-07-31T15:11:19;18.30;99.90
46732;DHT22;32477;51.474;5.696;2023-07-31T15:13:45;18.30;99.90
46732;DHT22;32477;51.474;5.696;2023-07-31T15:16:10;18.30;99.90
46732;DHT22;32477;51.474;5.696;2023-07-31T15:18:36;18.30;99.90
46732;DHT22;32477;51.474;5.696;2023-07-31T15:21:02;18.30;99.90
46732;DHT22;32477;51.474;5.696;2023-07-31T15:23:28;18.30;99.90
46732;DHT22;32477;51.474;5.696;2023-07-31T15:25:53;18.30;99.90
46732;DHT22;32477;51.474;5.696;2023-07-31T15:28:19;18.30;99.90
46732;DHT22;32477;51.474;5.696;2023-07-31T15:30:45;18.30;99.90
46732;DHT22;32477;51.474;5.696;2023-07-31T15:33:10;18.20;99.90
46732;DHT22;32477;51.474;5.696;2023-07-31T15:35:36;18.20;99.90
46732;DHT22;32477;51.474;5.696;2023-07-31T15:38:01;18.10;99.90
46732;DHT22;32477;51.474;5.696;2023-07-31T15:40:27;18.10;99.90
46732;DHT22;32477;51.474;5.696;2023-07-31T15:42:52;18.10;99.90
46732;DHT22;32477;51.474;5.696;2023-07-31T15:45:18;18.10;99.90
46732;DHT22;32477;51.474;5.696;2023-07-31T15:47:44;18.10;99.90